Terminal Aerodrome Forecast
Issued by NWS Sioux Falls, SD

Home | Current Version | Previous Version | Graphics & Text | Print | Product List | Glossary Off
Versions: 1 2 3 4 5 6 7 8 9 10 11 12 13 14 15 16 17

000
FTUS43 KFSD 151742
TAFHON
TAF
KHON 151742Z 1518/1618 35008KT P6SM FEW060
     FM160000 VRB03KT P6SM SKC
     FM160600 15006KT P6SM SKC
     FM161500 16009KT P6SM BKN040=

USA.gov is the U.S. government's official web portal to all federal, state and local government web resources and services.